Time;durP1;ratioP1;P1;durP2;ratioP2;P2;SDS_P1;SDS_P2;PMS_P1;PMS_P2;Temp;Humidity;BMP_temperature;BMP_pressure;BME280_temperature;BME280_humidity;BME280_pressure;Samples;Min_cycle;Max_cycle;Signal;HPM_P1;HPM_P2
2023/04/12 00:00:35;;;;;;;17.48;3.28;;;6.60;99.90;;;5.17;100.00;100730.47;5014564;28;20095;-79
2023/04/12 00:03:06;;;;;;;13.43;3.45;;;6.50;99.90;;;5.08;100.00;100731.53;4990666;28;20902;-79
2023/04/12 00:05:36;;;;;;;14.63;3.17;;;6.40;99.90;;;4.96;100.00;100729.22;5005506;28;20037;-79
2023/04/12 00:08:03;;;;;;;12.25;3.70;;;6.30;99.90;;;4.85;100.00;100733.81;5011203;28;20120;-79
2023/04/12 00:10:30;;;;;;;10.65;3.72;;;6.20;99.90;;;4.75;100.00;100729.69;5004345;28;20033;-79
2023/04/12 00:12:55;;;;;;;10.27;3.00;;;6.10;99.90;;;4.66;100.00;100725.56;5011013;28;20059;-79
2023/04/12 00:15:24;;;;;;;15.73;5.18;;;6.00;99.90;;;4.55;100.00;100725.78;5014578;28;20030;-79
2023/04/12 00:17:50;;;;;;;19.23;6.13;;;5.90;99.90;;;4.44;100.00;100727.78;5012089;28;20029;-78
2023/04/12 00:20:17;;;;;;;18.75;6.03;;;5.80;99.90;;;4.36;100.00;100714.03;4986743;28;20036;-79
2023/04/12 00:22:43;;;;;;;16.42;5.60;;;5.80;99.90;;;4.28;100.00;100712.47;5021821;28;20029;-79
2023/04/12 00:25:09;;;;;;;19.60;6.10;;;5.70;99.90;;;4.20;100.00;100709.16;5014918;28;21298;-79
2023/04/12 00:27:35;;;;;;;21.65;6.05;;;5.60;99.90;;;4.13;100.00;100696.28;5012974;28;20057;-79
2023/04/12 00:30:06;;;;;;;13.85;5.88;;;5.60;99.90;;;4.06;100.00;100704.22;5014507;28;20034;-78
2023/04/12 00:32:32;;;;;;;15.43;5.38;;;5.50;99.90;;;4.01;100.00;100702.59;5009530;28;20037;-79
2023/04/12 00:34:57;;;;;;;16.98;5.97;;;5.40;99.90;;;3.93;100.00;100694.06;5001415;28;20148;-78
2023/04/12 00:37:23;;;;;;;19.70;6.88;;;5.40;99.90;;;3.78;100.00;100693.50;4998534;28;20033;-79
2023/04/12 00:39:49;;;;;;;22.58;8.18;;;5.20;99.90;;;3.65;100.00;100695.47;4984713;28;20041;-79
2023/04/12 00:42:15;;;;;;;19.33;7.28;;;5.20;99.90;;;3.61;100.00;100685.13;5012889;28;20064;-79
2023/04/12 00:44:41;;;;;;;26.70;8.25;;;5.10;99.90;;;3.51;100.00;100689.63;4978184;28;20533;-78
2023/04/12 00:47:07;;;;;;;29.83;8.68;;;5.00;99.90;;;3.39;100.00;100693.34;4977662;28;20402;-79
2023/04/12 00:49:33;;;;;;;33.28;8.52;;;4.90;99.90;;;3.31;100.00;100695.19;5020181;28;20043;-79
2023/04/12 00:52:08;;;;;;;26.65;8.88;;;4.90;99.90;;;3.28;100.00;100690.91;4994476;28;20118;-79
2023/04/12 00:54:38;;;;;;;25.73;8.60;;;4.80;99.90;;;3.23;100.00;100700.53;5019260;28;20043;-79
2023/04/12 00:57:04;;;;;;;38.88;10.55;;;4.70;99.90;;;3.12;100.00;100694.66;5011709;28;20034;-79
2023/04/12 00:59:30;;;;;;;43.80;9.93;;;4.70;99.90;;;3.04;100.00;100692.16;4988411;28;20046;-79
2023/04/12 01:01:58;;;;;;;43.70;10.82;;;4.60;99.90;;;3.02;100.00;100693.06;4995871;28;20024;-79
2023/04/12 01:04:36;;;;;;;39.20;11.95;;;4.60;99.90;;;3.00;100.00;100687.03;4979068;28;20429;-79
2023/04/12 01:07:18;;;;;;;46.15;11.73;;;4.50;99.90;;;2.92;100.00;100687.16;4989432;28;20389;-79
2023/04/12 01:10:37;;;;;;;49.15;11.10;;;4.50;99.90;;;2.85;100.00;100686.41;5013022;28;20573;-79
2023/04/12 01:13:33;;;;;;;43.63;11.90;;;4.40;99.90;;;2.78;100.00;100681.31;4969692;28;20041;-79
2023/04/12 01:16:39;;;;;;;42.65;12.30;;;4.40;99.90;;;2.76;100.00;100680.47;5031809;28;20413;-78
2023/04/12 01:19:32;;;;;;;75.18;13.95;;;4.30;99.90;;;2.61;100.00;100676.34;4998232;28;20044;-79
2023/04/12 01:22:28;;;;;;;41.47;11.45;;;4.20;99.90;;;2.57;100.00;100677.28;5029118;28;20094;-79
2023/04/12 01:25:02;;;;;;;28.40;9.13;;;4.20;99.90;;;2.57;100.00;100675.56;4998978;28;20037;-79
2023/04/12 01:27:45;;;;;;;293.58;17.23;;;4.10;99.90;;;2.55;100.00;100666.94;5012864;28;21549;-79
2023/04/12 01:30:16;;;;;;;264.30;17.35;;;4.10;99.90;;;2.43;100.00;100667.09;5011343;28;20065;-78
2023/04/12 01:32:45;;;;;;;272.65;17.13;;;4.10;99.90;;;2.42;100.00;100665.38;5003449;28;20033;-79
2023/04/12 01:35:13;;;;;;;103.13;12.48;;;4.00;99.90;;;2.43;100.00;100669.69;4932265;28;20056;-78
2023/04/12 01:37:40;;;;;;;342.65;18.05;;;4.10;99.90;;;2.46;100.00;100673.13;5003548;28;20067;-78
2023/04/12 01:40:08;;;;;;;348.60;17.58;;;4.00;99.90;;;2.49;100.00;100671.34;5029210;28;20120;-79
2023/04/12 01:42:34;;;;;;;355.08;19.08;;;4.00;99.90;;;2.50;100.00;100673.06;5002272;28;20033;-79
2023/04/12 01:45:03;;;;;;;288.05;16.67;;;4.00;99.90;;;2.49;100.00;100671.34;4996563;28;20066;-79
2023/04/12 01:47:29;;;;;;;472.90;20.73;;;4.00;99.90;;;2.44;100.00;100669.69;4984127;28;20179;-79
2023/04/12 01:50:19;;;;;;;904.50;29.95;;;4.00;99.90;;;2.40;100.00;100662.81;5012420;28;20049;-79
2023/04/12 01:53:09;;;;;;;781.38;27.38;;;3.90;99.90;;;2.31;100.00;100668.13;5011881;28;20037;-79
2023/04/12 01:55:41;;;;;;;723.75;27.92;;;3.90;99.90;;;2.24;100.00;100676.88;5011891;28;20057;-79
2023/04/12 01:58:10;;;;;;;180.13;15.07;;;3.80;99.90;;;2.26;100.00;100675.97;4977892;28;20041;-78
2023/04/12 02:00:37;;;;;;;329.35;17.20;;;3.80;99.90;;;2.22;100.00;100663.88;4984482;28;20454;-79
2023/04/12 02:03:05;;;;;;;859.25;35.75;;;3.80;99.90;;;2.14;100.00;100657.06;5012064;28;20189;-79
2023/04/12 02:05:33;;;;;;;683.58;32.38;;;3.70;99.90;;;2.04;100.00;100658.94;4986608;28;20049;-79
2023/04/12 02:08:01;;;;;;;219.35;21.23;;;3.70;99.90;;;2.01;100.00;100657.25;5017902;28;20041;-79
2023/04/12 02:10:29;;;;;;;41.00;13.02;;;3.60;99.90;;;2.05;100.00;100650.25;5001248;28;20021;-79
2023/04/12 02:12:59;;;;;;;49.80;15.75;;;3.60;99.90;;;2.06;100.00;100652.00;5010185;28;20038;-79
2023/04/12 02:15:27;;;;;;;65.10;15.98;;;3.60;99.90;;;2.03;100.00;100645.09;5002452;28;20099;-79
2023/04/12 02:17:53;;;;;;;193.50;19.15;;;3.50;99.90;;;2.03;100.00;100644.22;4993968;28;20495;-79
2023/04/12 02:20:26;;;;;;;603.25;25.88;;;3.60;99.90;;;2.04;100.00;100648.56;4979020;28;20444;-79
2023/04/12 02:22:52;;;;;;;937.08;33.50;;;3.60;99.90;;;2.00;100.00;100632.16;5004265;28;20497;-79
2023/04/12 02:25:18;;;;;;;582.78;27.58;;;3.60;99.90;;;2.02;100.00;100637.31;5019487;28;20037;-79
2023/04/12 02:27:47;;;;;;;53.45;12.23;;;3.60;99.90;;;2.01;100.00;100631.28;4996898;28;20036;-78
2023/04/12 02:30:14;;;;;;;62.72;14.10;;;3.50;99.90;;;2.01;100.00;100622.66;5023803;28;20025;-78
2023/04/12 02:32:45;;;;;;;430.13;23.67;;;3.50;99.90;;;1.98;100.00;100620.91;5004289;28;20029;-79
2023/04/12 02:35:18;;;;;;;406.50;30.40;;;3.50;99.90;;;1.93;100.00;100621.88;5012044;28;20029;-79
2023/04/12 02:37:48;;;;;;;229.23;26.85;;;3.50;99.90;;;1.92;100.00;100613.19;5009979;28;20033;-79
2023/04/12 02:40:14;;;;;;;574.50;35.72;;;3.50;99.90;;;1.93;100.00;100624.47;5010564;28;20171;-80
2023/04/12 02:42:41;;;;;;;538.08;34.15;;;3.50;99.90;;;1.88;100.00;100610.66;4991354;28;20073;-79
2023/04/12 02:45:09;;;;;;;943.65;46.22;;;3.50;99.90;;;1.85;100.00;100616.75;4977722;28;20524;-79
2023/04/12 02:47:36;;;;;;;604.67;34.40;;;3.40;99.90;;;1.80;100.00;100613.38;5003460;28;20062;-79
2023/04/12 02:50:06;;;;;;;113.53;17.75;;;3.40;99.90;;;1.69;100.00;100610.91;4972432;28;20049;-78
2023/04/12 02:52:32;;;;;;;32.55;11.38;;;3.30;99.90;;;1.68;100.00;100614.38;5015624;28;20094;-79
2023/04/12 02:54:58;;;;;;;42.42;13.48;;;3.30;99.90;;;1.63;100.00;100609.22;5011431;28;20041;-79
2023/04/12 02:57:24;;;;;;;47.63;11.13;;;3.20;99.90;;;1.60;100.00;100611.03;5012257;28;20035;-78
2023/04/12 02:59:54;;;;;;;113.60;12.57;;;3.10;99.90;;;1.54;100.00;100606.75;4994787;28;20037;-79
2023/04/12 03:02:21;;;;;;;73.22;10.15;;;3.10;99.90;;;1.46;100.00;100603.38;5002949;28;20593;-79
2023/04/12 03:04:49;;;;;;;26.55;9.88;;;3.00;99.90;;;1.44;100.00;100602.53;4995230;28;22308;-79
2023/04/12 03:07:19;;;;;;;391.75;18.77;;;3.00;99.90;;;1.39;100.00;100604.34;4998700;28;20472;-79
2023/04/12 03:09:49;;;;;;;35.20;10.15;;;3.00;99.90;;;1.36;100.00;100606.94;4995942;28;20037;-79
2023/04/12 03:12:15;;;;;;;35.78;12.00;;;2.90;99.90;;;1.33;100.00;100600.06;5014073;28;20029;-78
2023/04/12 03:14:42;;;;;;;212.75;17.80;;;2.90;99.90;;;1.29;100.00;100595.78;5005544;28;20098;-78
2023/04/12 03:17:08;;;;;;;198.85;18.20;;;2.90;99.90;;;1.27;100.00;100588.88;5011769;28;20086;-78
2023/04/12 03:19:35;;;;;;;114.35;16.77;;;2.90;99.90;;;1.28;100.00;100588.88;5020329;28;20125;-79
2023/04/12 03:22:03;;;;;;;423.00;26.83;;;2.90;99.90;;;1.30;100.00;100588.88;5015908;28;20056;-79
2023/04/12 03:24:33;;;;;;;290.85;22.70;;;2.90;99.90;;;1.21;100.00;100582.91;4988767;28;20037;-78
2023/04/12 03:27:03;;;;;;;30.88;11.35;;;2.90;99.90;;;1.25;100.00;100588.03;5034701;28;20148;-78
2023/04/12 03:29:30;;;;;;;391.10;20.60;;;2.80;99.90;;;1.23;100.00;100585.47;5019896;28;20029;-78
2023/04/12 03:31:58;;;;;;;139.05;16.73;;;2.80;99.90;;;1.19;100.00;100584.66;5015131;28;20049;-78
2023/04/12 03:34:31;;;;;;;364.25;18.45;;;2.70;99.90;;;1.15;100.00;100575.19;5015194;28;20037;-78
2023/04/12 03:37:00;;;;;;;42.20;12.48;;;2.70;99.90;;;1.17;100.00;100585.56;5006770;28;20033;-78
2023/04/12 03:39:27;;;;;;;653.70;33.72;;;2.70;99.90;;;1.09;100.00;100570.06;5004228;28;20128;-78
2023/04/12 03:41:54;;;;;;;436.48;21.52;;;2.70;99.90;;;1.11;100.00;100564.84;5003306;28;20093;-78
2023/04/12 03:44:20;;;;;;;76.97;13.10;;;2.70;99.90;;;1.11;100.00;100564.84;4997422;28;20520;-78
2023/04/12 03:46:47;;;;;;;28.48;10.60;;;2.70;99.90;;;1.10;100.00;100569.19;4998779;28;20037;-78
2023/04/12 03:49:13;;;;;;;65.25;12.02;;;2.70;99.90;;;1.08;100.00;100573.53;5014432;28;20037;-78
2023/04/12 03:51:42;;;;;;;296.90;17.80;;;2.60;99.90;;;1.08;100.00;100570.06;5007273;28;20032;-78
2023/04/12 03:54:12;;;;;;;81.95;12.35;;;2.60;99.90;;;1.06;100.00;100566.63;5012783;28;20041;-77
2023/04/12 03:56:38;;;;;;;876.88;31.52;;;2.60;99.90;;;1.04;100.00;100561.47;5015008;28;20050;-78
2023/04/12 03:59:06;;;;;;;928.75;32.50;;;2.60;99.90;;;0.97;100.00;100562.38;5028235;28;20048;-78
2023/04/12 04:01:34;;;;;;;847.88;35.78;;;2.50;99.90;;;0.88;100.00;100558.16;5016905;28;20056;-78
2023/04/12 04:04:00;;;;;;;563.33;27.42;;;2.50;99.90;;;0.81;100.00;100553.91;5014135;28;20033;-77
2023/04/12 04:06:26;;;;;;;586.25;26.88;;;2.50;99.90;;;0.86;100.00;100557.31;5013932;28;20037;-78
2023/04/12 04:08:52;;;;;;;727.53;32.05;;;2.50;99.90;;;0.84;100.00;100543.50;5003653;28;20056;-78
2023/04/12 04:11:18;;;;;;;892.53;34.20;;;2.40;99.90;;;0.76;100.00;100542.72;5004118;28;20025;-77
2023/04/12 04:13:45;;;;;;;571.20;24.92;;;2.40;99.90;;;0.70;100.00;100535.00;5013848;28;20041;-78
2023/04/12 04:16:11;;;;;;;751.22;33.30;;;2.30;99.90;;;0.66;100.00;100541.94;5013338;28;20042;-77
2023/04/12 04:18:37;;;;;;;649.67;28.45;;;2.30;99.90;;;0.63;100.00;100533.31;4996128;28;20033;-78
2023/04/12 04:21:03;;;;;;;401.23;23.40;;;2.20;99.90;;;0.59;100.00;100528.19;5013219;28;20033;-78
2023/04/12 04:23:37;;;;;;;269.85;18.48;;;2.20;99.90;;;0.49;100.00;100533.47;5021213;28;20512;-77
2023/04/12 04:26:09;;;;;;;76.88;11.10;;;2.10;99.90;;;0.33;100.00;100533.59;4998558;28;20040;-78
2023/04/12 04:28:46;;;;;;;101.10;12.18;;;1.90;99.90;;;0.25;100.00;100530.19;5016147;28;20041;-77
2023/04/12 04:31:12;;;;;;;139.30;12.70;;;1.90;99.90;;;0.20;100.00;100527.63;4996368;28;20506;-78
2023/04/12 04:33:40;;;;;;;485.60;20.33;;;1.80;99.90;;;0.18;100.00;100526.78;5021904;28;20105;-77
2023/04/12 04:36:08;;;;;;;538.03;24.15;;;1.80;99.90;;;0.17;100.00;100522.50;5012394;28;20116;-78
2023/04/12 04:38:34;;;;;;;510.23;23.23;;;1.80;99.90;;;0.21;100.00;100525.91;5014436;28;20091;-77
2023/04/12 04:41:01;;;;;;;480.73;28.13;;;1.90;99.90;;;0.27;100.00;100517.22;4996910;28;20040;-77
2023/04/12 04:43:32;;;;;;;603.08;28.17;;;1.90;99.90;;;0.34;100.00;100519.75;5016393;28;20629;-78
2023/04/12 04:45:59;;;;;;;616.50;28.42;;;1.90;99.90;;;0.42;100.00;100513.66;5013804;28;20041;-77
2023/04/12 04:48:25;;;;;;;583.58;23.02;;;2.00;99.90;;;0.52;100.00;100510.09;5018339;28;20125;-78
2023/04/12 04:50:52;;;;;;;527.28;26.27;;;2.00;99.90;;;0.60;100.00;100510.91;5028091;28;20040;-77
2023/04/12 04:53:20;;;;;;;678.20;30.98;;;2.10;99.90;;;0.73;100.00;100507.31;5015576;28;20037;-77
2023/04/12 04:55:47;;;;;;;822.88;31.15;;;2.20;99.90;;;1.02;100.00;100513.97;5014374;28;20041;-77
2023/04/12 04:58:15;;;;;;;528.85;22.92;;;2.50;99.90;;;1.66;100.00;100514.88;5013199;28;20269;-78
2023/04/12 05:00:43;;;;;;;708.20;24.85;;;3.00;99.90;;;3.32;100.00;100519.94;5014927;28;20454;-77
2023/04/12 05:03:10;;;;;;;426.75;25.15;;;4.00;99.90;;;5.73;100.00;100542.66;5029834;28;20053;-77
2023/04/12 05:05:37;;;;;;;142.00;18.13;;;5.30;99.90;;;8.16;95.85;100543.97;5011991;28;20025;-77
2023/04/12 05:08:02;;;;;;;37.40;13.60;;;6.50;99.90;;;10.06;84.52;100559.44;5029141;28;20554;-78
2023/04/12 05:10:28;;;;;;;75.93;20.88;;;7.70;99.90;;;11.36;75.33;100560.94;4998470;28;20061;-78
2023/04/12 05:12:54;;;;;;;128.20;58.90;;;8.80;99.90;;;12.98;67.52;100566.91;5014727;28;20109;-78
2023/04/12 05:15:20;;;;;;;86.63;40.28;;;9.80;99.90;;;13.80;62.41;100556.66;5003911;28;20041;-78
2023/04/12 05:17:46;;;;;;;51.65;26.80;;;10.60;99.90;;;14.32;59.82;100574.56;5013972;28;20041;-79
2023/04/12 05:20:11;;;;;;;37.47;12.77;;;11.30;99.90;;;15.08;57.60;100579.25;5012770;28;20033;-78
2023/04/12 05:22:37;;;;;;;27.85;11.38;;;11.80;99.90;;;15.69;55.69;100587.44;5013268;28;20029;-78
2023/04/12 05:25:04;;;;;;;27.73;10.70;;;12.30;99.90;;;15.92;53.93;100591.16;4997251;28;20047;-78
2023/04/12 05:27:30;;;;;;;19.15;8.70;;;12.30;99.90;;;16.65;52.88;100597.41;5028140;28;20124;-78
2023/04/12 05:29:59;;;;;;;14.02;7.68;;;13.30;99.90;;;17.51;51.18;100609.50;4999787;28;20112;-78
2023/04/12 05:32:30;;;;;;;24.08;11.30;;;13.60;99.90;;;17.20;50.11;100609.22;5027343;28;20123;-78
2023/04/12 05:34:56;;;;;;;14.63;7.55;;;14.00;99.90;;;18.44;48.50;100619.94;5003703;28;20777;-78
2023/04/12 05:37:22;;;;;;;12.40;7.07;;;14.50;99.90;;;18.45;48.48;100618.13;4992840;28;20038;-78
2023/04/12 05:39:47;;;;;;;12.48;6.38;;;15.00;99.90;;;19.59;46.88;100641.50;5021562;28;20055;-78
2023/04/12 05:42:13;;;;;;;14.68;6.72;;;15.50;99.90;;;19.68;45.59;100631.88;4995363;28;20120;-78
2023/04/12 05:44:40;;;;;;;13.25;6.40;;;15.80;99.90;;;19.34;45.88;100629.41;5012511;28;20405;-78
2023/04/12 05:47:06;;;;;;;17.00;7.00;;;15.60;99.90;;;17.09;48.37;100597.72;4987290;28;20559;-78
2023/04/12 05:49:31;;;;;;;12.98;7.45;;;15.20;99.90;;;15.82;50.48;100581.28;5003123;28;20048;-78
2023/04/12 05:51:58;;;;;;;17.02;7.40;;;14.40;99.90;;;14.05;53.98;100559.47;4973877;28;20042;-78
2023/04/12 05:54:24;;;;;;;26.65;8.90;;;13.40;99.90;;;13.38;55.72;100550.47;5012163;28;20045;-78
2023/04/12 05:56:53;;;;;;;17.75;8.02;;;13.20;99.90;;;15.92;51.58;100598.28;5030215;28;20485;-78
2023/04/12 05:59:19;;;;;;;15.30;7.68;;;13.40;99.90;;;16.02;50.96;100588.69;4995951;28;20064;-78
2023/04/12 06:01:45;;;;;;;25.00;7.45;;;13.30;99.90;;;15.17;51.97;100575.97;5027340;28;20033;-78
2023/04/12 06:04:11;;;;;;;28.63;7.90;;;12.80;99.90;;;13.43;54.52;100551.88;4993256;28;20037;-78
2023/04/12 06:06:37;;;;;;;36.00;8.48;;;12.50;99.90;;;12.68;56.34;100535.22;5010447;28;20099;-78
2023/04/12 06:09:05;;;;;;;19.65;8.65;;;12.00;99.90;;;11.39;60.26;100514.19;4986094;28;20482;-79
2023/04/12 06:11:35;;;;;;;13.38;8.68;;;11.50;99.90;;;10.58;62.86;100510.47;4996695;28;20029;-79
2023/04/12 06:14:01;;;;;;;18.80;9.32;;;11.10;99.90;;;9.84;64.97;100506.97;5002025;28;22189;-78
2023/04/12 06:16:27;;;;;;;23.83;9.23;;;10.50;99.90;;;9.55;67.09;100507.47;4984201;28;20037;-79
2023/04/12 06:18:53;;;;;;;17.88;8.75;;;10.00;99.90;;;9.11;68.99;100499.81;4996778;28;20037;-79
2023/04/12 06:21:19;;;;;;;19.52;9.18;;;9.70;99.90;;;9.23;70.13;100502.75;5019214;28;20120;-79
2023/04/12 06:23:48;;;;;;;19.52;8.63;;;9.80;99.90;;;11.29;66.54;100512.97;4994112;28;20033;-79
2023/04/12 06:26:14;;;;;;;18.60;9.25;;;10.10;99.90;;;10.42;66.50;100500.69;4982022;28;20029;-79
2023/04/12 06:28:40;;;;;;;24.73;8.30;;;10.20;99.90;;;10.71;67.44;100501.00;5012417;28;20033;-79
2023/04/12 06:31:06;;;;;;;21.55;7.80;;;10.10;99.90;;;10.80;67.82;100499.72;5011895;28;20403;-80
2023/04/12 06:33:32;;;;;;;20.02;7.47;;;10.20;99.90;;;10.20;67.95;100489.50;5018003;28;20044;-80
2023/04/12 06:35:59;;;;;;;13.23;7.05;;;10.10;99.90;;;9.31;70.56;100484.03;5025909;28;20035;-80
2023/04/12 06:38:27;;;;;;;19.27;7.07;;;10.10;99.90;;;9.95;71.10;100493.31;4994539;28;20047;-80
2023/04/12 06:40:53;;;;;;;16.80;6.47;;;10.30;99.90;;;11.61;69.18;100515.66;5007066;28;20061;-80
2023/04/12 06:43:21;;;;;;;17.05;6.30;;;10.90;99.90;;;12.64;64.59;100509.91;4954985;28;20611;-81
2023/04/12 06:45:48;;;;;;;14.32;5.80;;;11.40;99.90;;;12.96;63.62;100510.66;4972747;28;20040;-80
2023/04/12 06:48:18;;;;;;;14.30;5.63;;;12.00;99.90;;;12.86;62.90;100506.84;4966227;28;20105;-80
2023/04/12 06:50:44;;;;;;;17.05;6.30;;;12.40;99.90;;;14.40;61.42;100521.91;5009373;28;20030;-80
2023/04/12 06:53:12;;;;;;;16.95;5.50;;;13.40;99.90;;;16.59;56.89;100540.22;4971165;28;20160;-80
2023/04/12 06:55:38;;;;;;;16.25;5.15;;;14.40;99.90;;;17.35;54.10;100532.69;4991877;28;20037;-80
2023/04/12 06:58:04;;;;;;;15.25;4.82;;;15.90;99.90;;;19.72;50.32;100549.66;4989167;28;20047;-80
2023/04/12 07:00:40;;;;;;;17.30;4.45;;;17.50;99.90;;;21.42;47.02;100565.41;4990660;28;20493;-80
2023/04/12 07:03:07;;;;;;;10.70;4.07;;;19.20;99.90;;;22.87;44.70;100570.91;4942884;28;20061;-81
2023/04/12 07:05:42;;;;;;;15.23;3.92;;;20.60;99.90;;;23.78;42.50;100573.25;4958177;28;20038;-82
2023/04/12 07:08:08;;;;;;;17.52;3.70;;;22.00;99.90;;;24.51;41.42;100579.88;4958954;28;21071;-81
2023/04/12 07:10:35;;;;;;;12.85;3.85;;;22.80;99.30;;;24.92;40.60;100591.53;4994049;28;20542;-81
2023/04/12 07:13:08;;;;;;;19.33;4.38;;;23.60;97.20;;;25.03;40.08;100597.56;5004737;28;20030;-81
2023/04/12 07:15:34;;;;;;;15.10;3.60;;;24.20;96.10;;;25.51;39.48;100598.56;4994688;28;20390;-81
2023/04/12 07:17:59;;;;;;;16.40;3.72;;;24.50;94.30;;;25.47;39.00;100598.06;4977667;28;20112;-81
2023/04/12 07:20:25;;;;;;;14.80;3.20;;;24.70;93.80;;;25.31;38.87;100593.56;4946029;28;20129;-82
2023/04/12 07:22:51;;;;;;;10.48;2.90;;;24.90;92.80;;;25.24;38.56;100597.94;4974240;28;20169;-80
2023/04/12 07:25:26;;;;;;;13.00;3.38;;;25.00;92.60;;;24.96;38.73;100605.50;4957548;28;20029;-81
2023/04/12 07:27:52;;;;;;;11.75;2.72;;;24.90;92.10;;;25.15;38.78;100610.53;4944980;28;20514;-80
2023/04/12 07:30:18;;;;;;;11.68;3.25;;;25.30;92.20;;;25.58;38.06;100610.34;4949827;28;20060;-80
2023/04/12 07:32:44;;;;;;;12.55;3.13;;;25.80;91.80;;;26.11;37.78;100608.84;4955710;28;20126;-80
2023/04/12 07:35:19;;;;;;;14.48;3.63;;;26.20;88.60;;;25.89;37.05;100615.81;4952954;28;20038;-81
2023/04/12 07:37:45;;;;;;;13.27;2.92;;;26.10;88.80;;;25.10;37.90;100615.59;4963734;28;20045;-81
2023/04/12 07:40:11;;;;;;;14.10;2.92;;;25.90;87.40;;;24.71;37.97;100610.88;4972020;28;20068;-80
2023/04/12 07:42:37;;;;;;;15.40;2.85;;;25.80;90.50;;;25.17;38.02;100621.97;4989780;28;20095;-81
2023/04/12 07:45:06;;;;;;;16.45;2.97;;;26.00;89.60;;;25.34;37.58;100630.09;4984085;28;20136;-80
2023/04/12 07:47:32;;;;;;;12.05;2.70;;;25.60;84.00;;;23.46;38.90;100598.06;4955078;28;20029;-80
2023/04/12 07:49:58;;;;;;;12.50;2.80;;;25.00;84.20;;;22.75;39.55;100591.78;4970825;28;20481;-81
2023/04/12 07:52:24;;;;;;;12.98;2.33;;;24.00;87.60;;;21.97;41.67;100583.38;4993859;28;20037;-81
2023/04/12 07:54:50;;;;;;;10.40;2.50;;;24.00;89.30;;;22.59;40.93;100595.16;4973680;28;20041;-81
2023/04/12 07:57:16;;;;;;;12.23;2.88;;;24.00;88.40;;;22.43;40.61;100579.72;4955042;28;20112;-81
2023/04/12 07:59:49;;;;;;;8.75;2.22;;;23.90;87.90;;;21.61;41.17;100572.53;5002285;28;20411;-80
2023/04/12 08:02:23;;;;;;;12.45;2.33;;;23.40;87.30;;;20.79;41.75;100565.91;4981143;28;20128;-81
2023/04/12 08:04:52;;;;;;;14.13;2.38;;;22.30;89.50;;;19.74;43.79;100547.69;4995182;28;20124;-80
2023/04/12 08:07:21;;;;;;;11.32;2.85;;;22.10;90.10;;;20.08;43.38;100556.22;4996218;28;20044;-81
2023/04/12 08:09:47;;;;;;;8.38;2.13;;;22.20;91.50;;;21.06;42.55;100563.34;5011454;28;20044;-80
2023/04/12 08:12:23;;;;;;;12.68;2.55;;;22.20;90.60;;;20.59;42.44;100565.91;4985920;28;20463;-81
2023/04/12 08:14:49;;;;;;;11.27;2.45;;;22.20;90.10;;;20.25;42.88;100560.91;5003580;28;20033;-80
2023/04/12 08:17:15;;;;;;;8.70;1.90;;;22.20;90.80;;;20.15;43.29;100548.50;4968618;28;20048;-80
2023/04/12 08:19:41;;;;;;;11.70;2.67;;;22.00;90.40;;;20.46;42.54;100555.44;4996754;28;20034;-80
2023/04/12 08:22:09;;;;;;;8.68;1.80;;;22.00;90.40;;;20.13;43.02;100546.00;4982233;28;20034;-80
2023/04/12 08:24:35;;;;;;;11.35;2.15;;;21.50;90.10;;;19.38;43.51;100541.91;4982145;28;20032;-81
2023/04/12 08:27:01;;;;;;;6.18;1.50;;;21.20;91.00;;;18.01;45.22;100518.63;5001492;28;20117;-80
2023/04/12 08:29:27;;;;;;;12.75;1.73;;;20.30;91.50;;;17.79;46.90;100508.81;5005277;28;20064;-80
2023/04/12 08:31:55;;;;;;;7.40;1.77;;;20.00;92.50;;;17.99;47.06;100504.56;4994046;28;20529;-81
2023/04/12 08:34:30;;;;;;;7.80;1.88;;;19.90;92.70;;;18.38;46.50;100510.28;4965748;28;20149;-80
2023/04/12 08:36:59;;;;;;;7.35;2.00;;;20.10;93.30;;;18.54;45.61;100513.38;4986197;28;20037;-80
2023/04/12 08:39:30;;;;;;;8.45;1.85;;;19.90;91.60;;;17.95;45.87;100508.50;4981825;28;20040;-81
2023/04/12 08:41:56;;;;;;;9.70;2.05;;;19.70;93.30;;;18.25;46.53;100510.47;5030070;28;20116;-80
2023/04/12 08:44:51;;;;;;;8.50;1.90;;;19.60;93.30;;;17.87;46.76;100497.59;4986317;28;20036;-80
2023/04/12 08:47:17;;;;;;;10.20;1.40;;;19.20;93.30;;;17.14;47.51;100482.00;4994478;28;20053;-80
2023/04/12 08:49:43;;;;;;;10.57;1.80;;;18.70;93.00;;;16.68;48.06;100485.50;5002449;28;20192;-80
2023/04/12 08:52:10;;;;;;;13.60;1.70;;;17.90;93.60;;;15.98;48.98;100478.31;4997289;28;20045;-80
2023/04/12 08:54:36;;;;;;;5.60;1.05;;;17.40;94.40;;;15.41;49.76;100466.47;4986062;28;20065;-80
2023/04/12 08:57:08;;;;;;;8.43;1.52;;;17.20;94.70;;;15.90;49.48;100465.63;5002571;28;20037;-80
2023/04/12 08:59:41;;;;;;;6.47;1.63;;;17.20;95.40;;;16.27;49.50;100476.19;4952098;28;20514;-80
2023/04/12 09:02:09;;;;;;;10.65;1.60;;;17.20;94.60;;;16.18;48.67;100469.75;4993757;28;20147;-79
2023/04/12 09:04:48;;;;;;;12.30;1.63;;;17.00;93.80;;;15.81;48.67;100458.34;5000361;28;20498;-80
2023/04/12 09:07:17;;;;;;;9.27;1.95;;;16.70;94.50;;;15.12;49.62;100444.66;5029573;28;20052;-81
2023/04/12 09:09:47;;;;;;;8.50;1.92;;;16.30;96.50;;;14.75;52.40;100425.97;4961828;28;20103;-80
2023/04/12 09:12:21;;;;;;;9.70;1.60;;;16.00;97.00;;;14.40;52.76;100415.94;5004038;28;20052;-80
2023/04/12 09:14:47;;;;;;;6.70;1.70;;;15.70;98.90;;;14.22;55.30;100411.91;4995359;28;20133;-80
2023/04/12 09:17:28;;;;;;;9.50;2.08;;;15.60;98.00;;;13.80;54.02;100419.06;5022845;28;20044;-80
2023/04/12 09:19:55;;;;;;;12.10;1.98;;;15.40;98.70;;;13.88;55.51;100401.72;5009064;28;20033;-80
2023/04/12 09:22:34;;;;;;;11.07;1.95;;;15.20;99.20;;;13.61;56.23;100409.69;5020404;28;20120;-80
2023/04/12 09:25:01;;;;;;;9.23;1.83;;;15.00;99.10;;;13.37;56.51;100404.19;4997286;28;20063;-81
2023/04/12 09:27:47;;;;;;;14.75;2.00;;;14.80;99.90;;;13.45;57.77;100396.56;5035744;28;20044;-80
2023/04/12 09:30:14;;;;;;;15.40;2.15;;;14.40;99.90;;;12.77;58.80;100388.50;5013490;28;20079;-80
2023/04/12 09:32:41;;;;;;;10.35;2.20;;;14.10;99.90;;;12.28;59.82;100382.56;4987042;28;20034;-80
2023/04/12 09:35:08;;;;;;;7.53;1.80;;;13.80;99.90;;;12.20;61.12;100374.28;5006846;28;20737;-80
2023/04/12 09:37:39;;;;;;;18.00;2.63;;;13.80;99.90;;;12.37;60.34;100375.91;4988871;28;20056;-80
2023/04/12 09:40:10;;;;;;;12.07;1.88;;;13.80;99.90;;;12.33;60.36;100369.09;5019818;28;20036;-80
2023/04/12 09:42:52;;;;;;;10.20;1.63;;;13.70;99.90;;;11.99;61.08;100355.25;5000621;28;20053;-79
2023/04/12 09:45:25;;;;;;;6.47;1.65;;;13.60;99.90;;;11.83;62.07;100339.44;4962425;28;20560;-81
2023/04/12 09:48:00;;;;;;;9.40;2.15;;;13.50;99.90;;;12.09;62.68;100345.88;4974611;28;20029;-82
2023/04/12 09:50:32;;;;;;;11.10;1.92;;;13.50;99.90;;;12.29;62.01;100341.22;5015652;28;20035;-79
2023/04/12 09:53:20;;;;;;;9.10;1.85;;;13.40;99.90;;;11.97;62.12;100324.63;5011085;28;20739;-78
2023/04/12 09:55:50;;;;;;;11.07;2.15;;;13.50;99.90;;;12.13;61.49;100330.69;4994235;28;20401;-81
2023/04/12 09:58:20;;;;;;;11.93;2.22;;;13.40;99.90;;;12.11;60.69;100322.84;4969085;28;20047;-80
2023/04/12 10:00:53;;;;;;;12.43;1.98;;;13.50;99.90;;;12.23;61.33;100313.38;4996598;28;20037;-80
2023/04/12 10:03:19;;;;;;;10.50;2.28;;;13.50;99.90;;;12.24;63.18;100315.06;4982838;28;20036;-80
2023/04/12 10:05:45;;;;;;;8.35;1.58;;;13.50;99.90;;;12.11;61.52;100309.66;4995604;28;20038;-80
2023/04/12 10:08:16;;;;;;;6.50;1.80;;;13.40;99.90;;;11.83;62.11;100299.84;4995545;28;20120;-80
2023/04/12 10:10:47;;;;;;;8.68;1.80;;;13.20;99.90;;;11.60;61.75;100285.41;5011603;28;20037;-81
2023/04/12 10:13:14;;;;;;;9.85;1.70;;;13.20;99.90;;;11.92;61.94;100280.03;5004515;28;20041;-81